Time;durP1;ratioP1;P1;durP2;ratioP2;P2;SDS_P1;SDS_P2;PMS_P1;PMS_P2;Temp;Humidity;BMP_temperature;BMP_pressure;BME280_temperature;BME280_humidity;BME280_pressure;Samples;Min_cycle;Max_cycle;Signal;HPM_P1;HPM_P2
2021/09/19 00:00:01;;;;;;;12.13;10.82;;;;;;;;;;4980417;28;20184;-71
2021/09/19 00:02:26;;;;;;;12.15;10.77;;;;;;;;;;4969126;28;20176;-72
2021/09/19 00:04:51;;;;;;;12.27;10.98;;;;;;;;;;4985699;28;20183;-72
2021/09/19 00:07:17;;;;;;;12.02;10.43;;;;;;;;;;4991934;28;20199;-72
2021/09/19 00:09:42;;;;;;;10.63;9.52;;;;;;;;;;4980929;28;20290;-71
2021/09/19 00:12:07;;;;;;;10.43;9.45;;;;;;;;;;4983642;28;20210;-71
2021/09/19 00:14:34;;;;;;;11.07;9.75;;;;;;;;;;4969093;28;20649;-71
2021/09/19 00:17:00;;;;;;;11.40;10.27;;;;;;;;;;4983868;28;20267;-72
2021/09/19 00:19:25;;;;;;;12.65;11.02;;;;;;;;;;4986997;28;20282;-71
2021/09/19 00:21:50;;;;;;;10.50;9.25;;;;;;;;;;4985703;28;20183;-72
2021/09/19 00:24:16;;;;;;;11.27;10.18;;;;;;;;;;4986159;28;20191;-72
2021/09/19 00:26:41;;;;;;;12.23;11.02;;;;;;;;;;4987189;28;20198;-69
2021/09/19 00:29:07;;;;;;;12.02;10.55;;;;;;;;;;4990699;28;20769;-68
2021/09/19 00:31:32;;;;;;;10.98;9.93;;;;;;;;;;4993145;28;20202;-69
2021/09/19 00:33:57;;;;;;;11.82;10.63;;;;;;;;;;4981603;28;20701;-69
2021/09/19 00:36:22;;;;;;;11.40;10.30;;;;;;;;;;4973527;28;20183;-69
2021/09/19 00:38:47;;;;;;;13.57;10.70;;;;;;;;;;4987382;28;20200;-69
2021/09/19 00:41:12;;;;;;;12.02;10.68;;;;;;;;;;4987885;28;20179;-69
2021/09/19 00:43:38;;;;;;;12.70;11.35;;;;;;;;;;4976117;28;20184;-70
2021/09/19 00:46:03;;;;;;;11.82;10.70;;;;;;;;;;4987213;28;20669;-70
2021/09/19 00:48:28;;;;;;;11.93;10.68;;;;;;;;;;4988345;28;20207;-70
2021/09/19 00:50:53;;;;;;;11.05;10.02;;;;;;;;;;4989395;28;20266;-69
2021/09/19 00:53:20;;;;;;;12.13;10.88;;;;;;;;;;4993502;28;20183;-70
2021/09/19 00:55:48;;;;;;;12.45;11.25;;;;;;;;;;4977219;28;20196;-70
2021/09/19 00:58:14;;;;;;;12.10;10.90;;;;;;;;;;4962558;28;20620;-69
2021/09/19 01:00:42;;;;;;;12.68;11.45;;;;;;;;;;4966198;28;20187;-69
2021/09/19 01:03:07;;;;;;;13.63;12.25;;;;;;;;;;4968582;28;20202;-70
2021/09/19 01:05:32;;;;;;;13.70;12.18;;;;;;;;;;4951001;28;20187;-70
2021/09/19 01:07:58;;;;;;;13.70;12.40;;;;;;;;;;4964714;28;20234;-69
2021/09/19 01:10:24;;;;;;;13.70;12.10;;;;;;;;;;4951488;28;20198;-70
2021/09/19 01:12:54;;;;;;;13.77;12.38;;;;;;;;;;4964810;28;20582;-69
2021/09/19 01:15:19;;;;;;;14.50;11.85;;;;;;;;;;4966192;28;20681;-72
2021/09/19 01:17:44;;;;;;;13.05;11.57;;;;;;;;;;4971506;28;20200;-71
2021/09/19 01:20:13;;;;;;;12.32;11.13;;;;;;;;;;4964523;28;20191;-69
2021/09/19 01:22:39;;;;;;;13.10;11.85;;;;;;;;;;4965977;28;20286;-72
2021/09/19 01:25:06;;;;;;;14.27;11.70;;;;;;;;;;4964639;28;20258;-71
2021/09/19 01:27:31;;;;;;;12.82;11.50;;;;;;;;;;4968101;28;20543;-69
2021/09/19 01:29:57;;;;;;;14.13;12.35;;;;;;;;;;4966290;28;20180;-71
2021/09/19 01:32:22;;;;;;;14.70;12.32;;;;;;;;;;4952256;28;20604;-71
2021/09/19 01:34:51;;;;;;;14.23;12.65;;;;;;;;;;4976560;28;20168;-71
2021/09/19 01:37:16;;;;;;;15.13;13.33;;;;;;;;;;4963829;28;20234;-71
2021/09/19 01:39:42;;;;;;;14.33;12.70;;;;;;;;;;4966797;28;20204;-71
2021/09/19 01:42:07;;;;;;;15.75;13.18;;;;;;;;;;4964171;28;20184;-70
2021/09/19 01:44:32;;;;;;;16.90;15.18;;;;;;;;;;4951580;28;20631;-71
2021/09/19 01:46:58;;;;;;;19.33;14.35;;;;;;;;;;4965645;28;20188;-70
2021/09/19 01:49:23;;;;;;;16.70;15.05;;;;;;;;;;4965593;28;20208;-71
2021/09/19 01:51:48;;;;;;;16.33;14.63;;;;;;;;;;4969008;28;21422;-70
2021/09/19 01:54:14;;;;;;;15.83;13.37;;;;;;;;;;4964776;28;20649;-71
2021/09/19 01:56:39;;;;;;;16.25;13.95;;;;;;;;;;4970286;28;20179;-71
2021/09/19 01:59:04;;;;;;;16.50;14.17;;;;;;;;;;4964587;28;20646;-71
2021/09/19 02:01:30;;;;;;;15.98;14.10;;;;;;;;;;4969125;28;20172;-71
2021/09/19 02:03:55;;;;;;;16.13;14.18;;;;;;;;;;4957151;28;20670;-71
2021/09/19 02:06:21;;;;;;;16.17;14.38;;;;;;;;;;4989903;28;20227;-70
2021/09/19 02:08:46;;;;;;;14.65;13.15;;;;;;;;;;4990585;28;20282;-70
2021/09/19 02:11:13;;;;;;;15.60;13.90;;;;;;;;;;4967975;28;20399;-70
2021/09/19 02:13:39;;;;;;;17.20;14.90;;;;;;;;;;4963916;28;20294;-69
2021/09/19 02:16:05;;;;;;;15.70;14.07;;;;;;;;;;4971312;28;20187;-70
2021/09/19 02:18:30;;;;;;;15.67;13.77;;;;;;;;;;4974990;28;20199;-69
2021/09/19 02:20:55;;;;;;;16.47;14.83;;;;;;;;;;4972612;28;20214;-69
2021/09/19 02:23:21;;;;;;;15.45;13.77;;;;;;;;;;4951256;28;20569;-70
2021/09/19 02:25:46;;;;;;;17.65;14.95;;;;;;;;;;4972248;28;20807;-69
2021/09/19 02:28:14;;;;;;;16.13;14.43;;;;;;;;;;4953346;28;20357;-70
2021/09/19 02:30:39;;;;;;;16.60;14.82;;;;;;;;;;4969130;28;20275;-70
2021/09/19 02:33:05;;;;;;;18.40;15.57;;;;;;;;;;4954716;28;20204;-70
2021/09/19 02:35:30;;;;;;;17.52;14.75;;;;;;;;;;4969089;28;20172;-69
2021/09/19 02:37:55;;;;;;;18.65;15.80;;;;;;;;;;4953147;28;20579;-70
2021/09/19 02:40:20;;;;;;;18.70;15.38;;;;;;;;;;4967221;28;20184;-69
2021/09/19 02:42:46;;;;;;;19.13;15.95;;;;;;;;;;4968985;28;20295;-69
2021/09/19 02:45:11;;;;;;;17.50;15.40;;;;;;;;;;4968316;28;20200;-70
2021/09/19 02:47:37;;;;;;;16.13;14.23;;;;;;;;;;4953546;28;20286;-70
2021/09/19 02:50:03;;;;;;;17.73;15.73;;;;;;;;;;4969428;28;20215;-69
2021/09/19 02:52:28;;;;;;;19.75;16.52;;;;;;;;;;4969363;28;20293;-69
2021/09/19 02:54:53;;;;;;;18.55;15.02;;;;;;;;;;4967920;28;20198;-69
2021/09/19 02:57:18;;;;;;;15.95;14.32;;;;;;;;;;4971081;28;20522;-70
2021/09/19 02:59:43;;;;;;;16.77;14.88;;;;;;;;;;4968487;28;20187;-70
2021/09/19 03:02:09;;;;;;;17.25;15.45;;;;;;;;;;4970531;28;20498;-69
2021/09/19 03:04:34;;;;;;;16.08;14.38;;;;;;;;;;4973875;28;20180;-69
2021/09/19 03:07:00;;;;;;;17.15;15.35;;;;;;;;;;4968396;28;20192;-70
2021/09/19 03:09:25;;;;;;;16.27;14.68;;;;;;;;;;4967182;28;20200;-70
2021/09/19 03:11:50;;;;;;;18.50;15.18;;;;;;;;;;4967732;28;20200;-70
2021/09/19 03:14:15;;;;;;;17.75;15.80;;;;;;;;;;4970319;28;20660;-71
2021/09/19 03:16:41;;;;;;;17.02;15.05;;;;;;;;;;4971968;28;20173;-69
2021/09/19 03:19:06;;;;;;;18.88;15.70;;;;;;;;;;4967470;28;20196;-69
2021/09/19 03:21:32;;;;;;;17.20;14.33;;;;;;;;;;4969527;28;20203;-70
2021/09/19 03:23:57;;;;;;;18.35;16.45;;;;;;;;;;4952735;28;20685;-69
2021/09/19 03:26:22;;;;;;;17.25;14.65;;;;;;;;;;4969516;28;20179;-70
2021/09/19 03:28:47;;;;;;;19.13;15.60;;;;;;;;;;4966520;28;20203;-70
2021/09/19 03:31:12;;;;;;;20.60;16.50;;;;;;;;;;4967815;28;20301;-70
2021/09/19 03:33:38;;;;;;;16.95;14.07;;;;;;;;;;4971119;28;20190;-70
2021/09/19 03:36:03;;;;;;;17.33;15.52;;;;;;;;;;4966784;28;21024;-70
2021/09/19 03:38:29;;;;;;;17.77;15.87;;;;;;;;;;4971144;28;20207;-70
2021/09/19 03:40:54;;;;;;;18.42;15.43;;;;;;;;;;4968985;28;20603;-70
2021/09/19 03:43:19;;;;;;;18.20;14.82;;;;;;;;;;4969014;28;20180;-70
2021/09/19 03:45:44;;;;;;;18.30;15.82;;;;;;;;;;4971380;28;20620;-70
2021/09/19 03:48:09;;;;;;;17.23;15.40;;;;;;;;;;4979119;28;20209;-70
2021/09/19 03:50:35;;;;;;;19.85;15.57;;;;;;;;;;4985455;28;20800;-70
2021/09/19 03:53:00;;;;;;;17.98;16.08;;;;;;;;;;4966722;28;20208;-70
2021/09/19 03:55:26;;;;;;;17.33;15.50;;;;;;;;;;4971091;28;20646;-70
2021/09/19 03:57:52;;;;;;;15.93;14.15;;;;;;;;;;4975341;28;20211;-70
2021/09/19 04:00:17;;;;;;;19.50;15.50;;;;;;;;;;4957610;28;20270;-70
2021/09/19 04:02:42;;;;;;;16.77;14.90;;;;;;;;;;4971804;28;20271;-70
2021/09/19 04:05:09;;;;;;;19.13;15.20;;;;;;;;;;4971490;28;20275;-70
2021/09/19 04:07:34;;;;;;;19.47;15.67;;;;;;;;;;4972747;28;20195;-70
2021/09/19 04:09:59;;;;;;;17.63;15.40;;;;;;;;;;4974744;28;20192;-70
2021/09/19 04:12:24;;;;;;;16.60;14.70;;;;;;;;;;4974429;28;20211;-70
2021/09/19 04:14:50;;;;;;;18.07;15.87;;;;;;;;;;4978705;28;21401;-70
2021/09/19 04:17:15;;;;;;;18.50;16.13;;;;;;;;;;4983557;28;20189;-70
2021/09/19 04:19:40;;;;;;;17.58;14.93;;;;;;;;;;4979054;28;20206;-70
2021/09/19 04:22:05;;;;;;;20.70;15.77;;;;;;;;;;4979228;28;20263;-70
2021/09/19 04:24:30;;;;;;;19.98;16.48;;;;;;;;;;4978196;28;20184;-70
2021/09/19 04:26:55;;;;;;;20.03;15.70;;;;;;;;;;4972623;28;20197;-71
2021/09/19 04:29:21;;;;;;;19.83;16.70;;;;;;;;;;4970824;28;20222;-71
2021/09/19 04:31:46;;;;;;;19.13;15.70;;;;;;;;;;4971081;28;20271;-70
2021/09/19 04:34:11;;;;;;;17.80;15.80;;;;;;;;;;4966218;28;20192;-71
2021/09/19 04:36:36;;;;;;;18.87;16.17;;;;;;;;;;4965540;28;20179;-71
2021/09/19 04:39:02;;;;;;;19.47;16.40;;;;;;;;;;4947797;28;20207;-71
2021/09/19 04:41:27;;;;;;;18.10;15.47;;;;;;;;;;4967042;28;20184;-71
2021/09/19 04:43:52;;;;;;;19.70;16.77;;;;;;;;;;4965604;28;20175;-70
2021/09/19 04:46:17;;;;;;;21.53;17.43;;;;;;;;;;4968754;28;20273;-71
2021/09/19 04:48:42;;;;;;;20.03;17.37;;;;;;;;;;4963820;28;20458;-71
2021/09/19 04:51:08;;;;;;;19.17;16.07;;;;;;;;;;4965461;28;20560;-71
2021/09/19 04:53:33;;;;;;;18.70;16.38;;;;;;;;;;4965858;28;20196;-70
2021/09/19 04:55:58;;;;;;;22.93;16.63;;;;;;;;;;4970995;28;20354;-71
2021/09/19 04:58:23;;;;;;;22.43;17.77;;;;;;;;;;4966053;28;20287;-71
2021/09/19 05:00:48;;;;;;;21.53;17.67;;;;;;;;;;4967027;28;20192;-71
2021/09/19 05:03:14;;;;;;;19.97;17.83;;;;;;;;;;4965020;28;20222;-71
2021/09/19 05:05:39;;;;;;;20.73;16.67;;;;;;;;;;4964690;28;20199;-71
2021/09/19 05:08:04;;;;;;;20.17;16.43;;;;;;;;;;4964219;28;20856;-69
2021/09/19 05:10:29;;;;;;;20.83;17.30;;;;;;;;;;4952485;28;20188;-71
2021/09/19 05:12:54;;;;;;;19.73;17.03;;;;;;;;;;4965644;28;20208;-71
2021/09/19 05:15:19;;;;;;;19.90;16.67;;;;;;;;;;4970968;28;20674;-70
2021/09/19 05:17:45;;;;;;;20.43;17.53;;;;;;;;;;4964679;28;20195;-71
2021/09/19 05:20:10;;;;;;;22.53;16.73;;;;;;;;;;4964360;28;20171;-71
2021/09/19 05:22:35;;;;;;;22.17;18.23;;;;;;;;;;4972002;28;20187;-71
2021/09/19 05:25:01;;;;;;;21.83;18.30;;;;;;;;;;4966080;28;20187;-71
2021/09/19 05:27:26;;;;;;;20.47;16.20;;;;;;;;;;4972180;28;20188;-71
2021/09/19 05:29:51;;;;;;;20.17;15.67;;;;;;;;;;4952778;28;20223;-71
2021/09/19 05:32:17;;;;;;;19.67;17.10;;;;;;;;;;4971128;28;20215;-71
2021/09/19 05:34:42;;;;;;;20.80;17.17;;;;;;;;;;4968838;28;20538;-71
2021/09/19 05:37:07;;;;;;;24.05;18.77;;;;;;;;;;4965456;28;20621;-70
2021/09/19 05:39:32;;;;;;;22.88;17.33;;;;;;;;;;4963978;28;20555;-70
2021/09/19 05:41:58;;;;;;;21.15;17.50;;;;;;;;;;4966973;28;20203;-70
2021/09/19 05:44:23;;;;;;;21.20;17.60;;;;;;;;;;4963738;28;20189;-70
2021/09/19 05:46:48;;;;;;;22.27;18.08;;;;;;;;;;4964870;28;20191;-71
2021/09/19 05:49:13;;;;;;;23.70;17.45;;;;;;;;;;4945278;28;20226;-70
2021/09/19 05:51:38;;;;;;;22.33;17.67;;;;;;;;;;4967582;28;20219;-71
2021/09/19 05:54:04;;;;;;;19.85;16.38;;;;;;;;;;4964029;28;20839;-71
2021/09/19 05:56:29;;;;;;;20.23;17.13;;;;;;;;;;4970607;28;20194;-71
2021/09/19 05:58:55;;;;;;;20.15;17.65;;;;;;;;;;4964626;28;21218;-70
2021/09/19 06:01:20;;;;;;;19.85;16.88;;;;;;;;;;4970952;28;20293;-71
2021/09/19 06:03:45;;;;;;;21.85;17.02;;;;;;;;;;4973353;28;20218;-71
2021/09/19 06:06:10;;;;;;;19.23;16.20;;;;;;;;;;4965592;28;20315;-71
2021/09/19 06:08:35;;;;;;;18.85;16.73;;;;;;;;;;4962923;28;20580;-71
2021/09/19 06:11:01;;;;;;;21.73;17.77;;;;;;;;;;4952861;28;20218;-72
2021/09/19 06:13:26;;;;;;;21.33;16.67;;;;;;;;;;4967222;28;20222;-71
2021/09/19 06:15:51;;;;;;;19.85;16.33;;;;;;;;;;4971126;28;20177;-71
2021/09/19 06:18:16;;;;;;;20.08;15.45;;;;;;;;;;4967919;28;20648;-71
2021/09/19 06:20:42;;;;;;;18.00;16.10;;;;;;;;;;4949169;28;20264;-71
2021/09/19 06:23:07;;;;;;;17.30;14.35;;;;;;;;;;4965819;28;20837;-70
2021/09/19 06:25:32;;;;;;;19.25;15.45;;;;;;;;;;4965056;28;20194;-69
2021/09/19 06:30:26;;;;;;;17.25;13.85;;;;;;;;;;4974725;28;20549;-69
2021/09/19 06:32:51;;;;;;;17.30;14.88;;;;;;;;;;4980291;28;20952;-68
2021/09/19 06:35:16;;;;;;;15.25;13.35;;;;;;;;;;4975584;28;20191;-68
2021/09/19 06:37:42;;;;;;;16.40;13.68;;;;;;;;;;4973907;28;20374;-69
2021/09/19 06:40:07;;;;;;;15.48;13.88;;;;;;;;;;4974060;28;20195;-69
2021/09/19 06:42:33;;;;;;;16.08;13.23;;;;;;;;;;4977431;28;20237;-71
2021/09/19 06:44:58;;;;;;;14.23;12.75;;;;;;;;;;4973531;28;20203;-69
2021/09/19 06:47:23;;;;;;;14.05;12.60;;;;;;;;;;4973653;28;20619;-69
2021/09/19 06:49:48;;;;;;;15.68;13.48;;;;;;;;;;4972809;28;20214;-69
2021/09/19 06:52:14;;;;;;;14.45;12.73;;;;;;;;;;4977261;28;20219;-69
2021/09/19 06:54:39;;;;;;;14.63;13.07;;;;;;;;;;4975710;28;20180;-69
2021/09/19 06:57:04;;;;;;;14.07;12.52;;;;;;;;;;4976330;28;20557;-69
2021/09/19 06:59:29;;;;;;;13.40;12.00;;;;;;;;;;4974412;28;20204;-69
2021/09/19 07:01:54;;;;;;;13.48;12.13;;;;;;;;;;4979213;28;20191;-69
2021/09/19 07:04:20;;;;;;;14.53;12.53;;;;;;;;;;4978400;28;20824;-69
2021/09/19 07:06:48;;;;;;;12.52;11.32;;;;;;;;;;4978786;28;20453;-70
2021/09/19 07:09:13;;;;;;;13.48;12.18;;;;;;;;;;4975594;28;20676;-72
2021/09/19 07:11:38;;;;;;;11.45;10.13;;;;;;;;;;4980247;28;20203;-69
2021/09/19 07:14:03;;;;;;;10.95;9.85;;;;;;;;;;4977466;28;21959;-69
2021/09/19 07:16:29;;;;;;;10.57;9.57;;;;;;;;;;4980941;28;20187;-68
2021/09/19 07:18:54;;;;;;;11.82;10.60;;;;;;;;;;4976969;28;20191;-70
2021/09/19 07:21:19;;;;;;;11.53;10.33;;;;;;;;;;4983465;28;20753;-70
2021/09/19 07:23:44;;;;;;;12.30;11.13;;;;;;;;;;4978320;28;20468;-71
2021/09/19 07:26:10;;;;;;;10.90;8.98;;;;;;;;;;4959453;28;20187;-70
2021/09/19 07:28:35;;;;;;;10.48;9.38;;;;;;;;;;4979135;28;20215;-67
2021/09/19 07:31:00;;;;;;;10.75;9.73;;;;;;;;;;4978985;28;20620;-67
2021/09/19 07:33:26;;;;;;;10.00;8.77;;;;;;;;;;4982707;28;20172;-68
2021/09/19 07:35:51;;;;;;;10.13;9.07;;;;;;;;;;4977160;28;20281;-68
2021/09/19 07:38:20;;;;;;;9.85;8.95;;;;;;;;;;4980899;28;20210;-68
2021/09/19 07:40:45;;;;;;;10.75;9.73;;;;;;;;;;4978906;28;20186;-69
2021/09/19 07:43:11;;;;;;;9.35;8.45;;;;;;;;;;4976552;28;20188;-68
2021/09/19 07:45:36;;;;;;;10.60;9.60;;;;;;;;;;4979453;28;20188;-68
2021/09/19 07:48:06;;;;;;;8.93;8.13;;;;;;;;;;4978131;28;20208;-68
2021/09/19 07:50:31;;;;;;;9.15;8.35;;;;;;;;;;4978006;28;20333;-67
2021/09/19 07:52:57;;;;;;;8.70;7.85;;;;;;;;;;4977220;28;20657;-68
2021/09/19 07:55:22;;;;;;;8.90;7.90;;;;;;;;;;4977708;28;20176;-70
2021/09/19 07:57:47;;;;;;;8.15;7.38;;;;;;;;;;4977831;28;20574;-69
2021/09/19 08:00:12;;;;;;;8.80;7.93;;;;;;;;;;4978325;28;20203;-68
2021/09/19 08:02:38;;;;;;;7.95;7.25;;;;;;;;;;4979413;28;20519;-70
2021/09/19 08:05:04;;;;;;;7.72;7.07;;;;;;;;;;4979466;28;20213;-68
2021/09/19 08:07:29;;;;;;;7.68;6.88;;;;;;;;;;4977030;28;20184;-70
2021/09/19 08:09:54;;;;;;;8.73;7.83;;;;;;;;;;4981243;28;20210;-70
2021/09/19 08:12:19;;;;;;;7.90;7.10;;;;;;;;;;4980845;28;20847;-68
2021/09/19 08:14:45;;;;;;;8.40;7.60;;;;;;;;;;4982278;28;20436;-68
2021/09/19 08:17:10;;;;;;;8.02;7.22;;;;;;;;;;4980985;28;20183;-68
2021/09/19 08:19:35;;;;;;;7.18;6.50;;;;;;;;;;4979424;28;20199;-68
2021/09/19 08:22:00;;;;;;;7.35;6.65;;;;;;;;;;4963887;28;20199;-68
2021/09/19 08:24:26;;;;;;;9.50;7.20;;;;;;;;;;4978763;28;20214;-68
2021/09/19 08:26:51;;;;;;;6.50;5.90;;;;;;;;;;4976881;28;20188;-69
2021/09/19 08:29:16;;;;;;;6.40;5.75;;;;;;;;;;4975004;28;20571;-68
2021/09/19 08:31:42;;;;;;;6.80;6.20;;;;;;;;;;4977172;28;20670;-68
2021/09/19 08:34:07;;;;;;;6.90;5.97;;;;;;;;;;4978407;28;20187;-68
2021/09/19 08:36:33;;;;;;;7.20;5.90;;;;;;;;;;4979570;28;20198;-68
2021/09/19 08:38:58;;;;;;;6.78;6.00;;;;;;;;;;4977027;28;20346;-68
2021/09/19 08:41:23;;;;;;;5.88;5.35;;;;;;;;;;4976872;28;20270;-68
2021/09/19 08:43:49;;;;;;;6.57;5.88;;;;;;;;;;4973389;28;20219;-69
2021/09/19 08:46:15;;;;;;;5.88;5.38;;;;;;;;;;4981764;28;20188;-68
2021/09/19 08:48:41;;;;;;;6.10;5.50;;;;;;;;;;4976605;28;20828;-68
2021/09/19 08:51:06;;;;;;;5.32;4.85;;;;;;;;;;4976209;28;20250;-68
2021/09/19 08:53:31;;;;;;;5.88;5.28;;;;;;;;;;4974647;28;20180;-68
2021/09/19 08:55:57;;;;;;;5.10;4.70;;;;;;;;;;4977346;28;20625;-68
2021/09/19 08:58:22;;;;;;;5.00;4.60;;;;;;;;;;4975674;28;20673;-69
2021/09/19 09:00:48;;;;;;;6.60;4.88;;;;;;;;;;4977075;28;20258;-68
2021/09/19 09:03:14;;;;;;;4.53;4.10;;;;;;;;;;4978613;28;20665;-68
2021/09/19 09:05:39;;;;;;;5.82;4.00;;;;;;;;;;4976995;28;20191;-68
2021/09/19 09:08:06;;;;;;;4.82;3.80;;;;;;;;;;4976407;28;20550;-69
2021/09/19 09:10:33;;;;;;;4.50;4.03;;;;;;;;;;4975007;28;20187;-68
2021/09/19 09:13:00;;;;;;;4.85;3.80;;;;;;;;;;4976482;28;20206;-70
2021/09/19 09:15:39;;;;;;;4.75;4.35;;;;;;;;;;4982810;28;20176;-67
2021/09/19 09:18:05;;;;;;;4.60;3.75;;;;;;;;;;4977199;28;20231;-68
2021/09/19 09:20:49;;;;;;;4.97;4.57;;;;;;;;;;4978450;28;20210;-68
2021/09/19 09:23:24;;;;;;;4.50;4.10;;;;;;;;;;4976015;28;20875;-69
2021/09/19 09:26:07;;;;;;;5.53;4.00;;;;;;;;;;4975620;28;20274;-68
2021/09/19 09:28:58;;;;;;;7.75;4.80;;;;;;;;;;4975801;28;20583;-68
2021/09/19 09:31:25;;;;;;;5.40;4.50;;;;;;;;;;4974028;28;20191;-69
2021/09/19 09:34:08;;;;;;;5.38;4.88;;;;;;;;;;4958569;28;20179;-68
2021/09/19 09:36:38;;;;;;;4.53;4.13;;;;;;;;;;4975077;28;20716;-68
2021/09/19 09:39:19;;;;;;;4.40;4.07;;;;;;;;;;4973697;28;20612;-69
2021/09/19 09:41:44;;;;;;;5.25;3.95;;;;;;;;;;4976730;28;20179;-68
2021/09/19 09:44:25;;;;;;;4.97;4.47;;;;;;;;;;4978815;28;20223;-67
2021/09/19 09:46:50;;;;;;;5.35;4.85;;;;;;;;;;4974512;28;20429;-70
2021/09/19 09:49:15;;;;;;;5.65;4.32;;;;;;;;;;4974978;28;20204;-68
2021/09/19 09:51:41;;;;;;;4.65;4.25;;;;;;;;;;4973641;28;20743;-68
2021/09/19 09:54:06;;;;;;;4.57;3.80;;;;;;;;;;4974986;28;20179;-68
2021/09/19 09:56:31;;;;;;;5.77;4.27;;;;;;;;;;4978069;28;20194;-67
2021/09/19 09:58:57;;;;;;;4.63;4.22;;;;;;;;;;4979382;28;20481;-68
2021/09/19 10:01:22;;;;;;;5.20;4.60;;;;;;;;;;4974543;28;20214;-68
2021/09/19 10:03:48;;;;;;;4.70;4.10;;;;;;;;;;4978642;28;20184;-68
2021/09/19 10:06:14;;;;;;;4.95;4.55;;;;;;;;;;4981231;28;20175;-70
2021/09/19 10:08:40;;;;;;;5.85;4.70;;;;;;;;;;4977985;28;20716;-68
2021/09/19 10:11:09;;;;;;;4.60;4.25;;;;;;;;;;4980995;28;20186;-68
2021/09/19 10:13:37;;;;;;;6.45;5.85;;;;;;;;;;4976434;28;20186;-68
2021/09/19 10:16:02;;;;;;;4.68;4.22;;;;;;;;;;4977124;28;20254;-68
2021/09/19 10:18:27;;;;;;;4.38;3.70;;;;;;;;;;4978908;28;20196;-68
2021/09/19 10:20:53;;;;;;;5.97;4.65;;;;;;;;;;4982547;28;20186;-68
2021/09/19 10:23:19;;;;;;;4.78;4.43;;;;;;;;;;4958661;28;20501;-68
2021/09/19 10:25:52;;;;;;;5.28;4.78;;;;;;;;;;4972816;28;20192;-68
2021/09/19 10:28:36;;;;;;;5.57;4.25;;;;;;;;;;4976058;28;20215;-68
2021/09/19 10:31:11;;;;;;;4.85;4.38;;;;;;;;;;4974338;28;20195;-68
2021/09/19 10:33:36;;;;;;;5.13;3.75;;;;;;;;;;4980170;28;20207;-68
2021/09/19 10:36:03;;;;;;;4.60;4.00;;;;;;;;;;4974311;28;20726;-69
2021/09/19 10:38:35;;;;;;;4.28;3.95;;;;;;;;;;4986638;28;20543;-68
2021/09/19 10:41:13;;;;;;;4.70;4.13;;;;;;;;;;4978161;28;20179;-68
2021/09/19 10:44:08;;;;;;;3.13;2.92;;;;;;;;;;4977389;28;20237;-68
2021/09/19 10:46:36;;;;;;;5.03;3.97;;;;;;;;;;4949235;28;20279;-68
2021/09/19 10:49:18;;;;;;;4.88;3.70;;;;;;;;;;4978378;28;20196;-68
2021/09/19 10:52:02;;;;;;;4.72;4.25;;;;;;;;;;4979984;28;20255;-67
2021/09/19 10:54:42;;;;;;;4.30;3.28;;;;;;;;;;4977576;28;20211;-67
2021/09/19 10:57:13;;;;;;;11.90;4.20;;;;;;;;;;4980753;28;20262;-67
2021/09/19 10:59:57;;;;;;;4.20;3.63;;;;;;;;;;4973857;28;20203;-66
2021/09/19 11:02:28;;;;;;;4.45;3.40;;;;;;;;;;4975354;28;20193;-67
2021/09/19 11:05:12;;;;;;;5.63;3.65;;;;;;;;;;4985368;28;20230;-66
2021/09/19 11:07:37;;;;;;;4.20;3.35;;;;;;;;;;4978964;28;20269;-68
2021/09/19 11:10:02;;;;;;;5.65;3.25;;;;;;;;;;4976502;28;20294;-69
2021/09/19 11:12:39;;;;;;;3.80;3.50;;;;;;;;;;4978732;28;20218;-68
2021/09/19 11:15:06;;;;;;;6.28;3.08;;;;;;;;;;4978163;28;20180;-67
2021/09/19 11:17:33;;;;;;;3.63;3.33;;;;;;;;;;4978598;28;20241;-67
2021/09/19 11:20:21;;;;;;;3.35;3.03;;;;;;;;;;4978088;28;20430;-68
2021/09/19 11:22:51;;;;;;;3.08;2.65;;;;;;;;;;4973501;28;20192;-68
2021/09/19 11:25:18;;;;;;;3.63;2.70;;;;;;;;;;4979128;28;20186;-68
2021/09/19 11:27:45;;;;;;;3.97;2.60;;;;;;;;;;4981055;28;20179;-67
2021/09/19 11:30:12;;;;;;;3.33;2.90;;;;;;;;;;4979433;28;20764;-67
2021/09/19 11:32:37;;;;;;;2.95;2.60;;;;;;;;;;4983152;28;20238;-67
2021/09/19 11:35:03;;;;;;;2.50;2.22;;;;;;;;;;4978475;28;20302;-67
2021/09/19 11:37:29;;;;;;;3.28;2.97;;;;;;;;;;4976601;28;20175;-67
2021/09/19 11:39:54;;;;;;;3.80;3.50;;;;;;;;;;4978479;28;20199;-68
2021/09/19 11:42:19;;;;;;;5.07;3.23;;;;;;;;;;4977864;28;20939;-67
2021/09/19 11:44:46;;;;;;;3.38;2.60;;;;;;;;;;4977160;28;20433;-68
2021/09/19 11:47:12;;;;;;;3.15;2.60;;;;;;;;;;4976734;28;20187;-67
2021/09/19 11:49:39;;;;;;;2.40;2.17;;;;;;;;;;4978199;28;20223;-67
2021/09/19 11:52:05;;;;;;;2.63;2.42;;;;;;;;;;4989263;28;20203;-68
2021/09/19 11:54:30;;;;;;;4.57;2.83;;;;;;;;;;4976779;28;20680;-67
2021/09/19 11:56:55;;;;;;;4.07;2.47;;;;;;;;;;4980753;28;20616;-67
2021/09/19 11:59:21;;;;;;;2.75;2.55;;;;;;;;;;4979398;28;20978;-67
2021/09/19 12:01:46;;;;;;;3.50;2.80;;;;;;;;;;4978989;28;20611;-67
2021/09/19 12:04:12;;;;;;;2.70;2.50;;;;;;;;;;4978404;28;20349;-69
2021/09/19 12:06:38;;;;;;;2.05;1.90;;;;;;;;;;4974108;28;20286;-67
2021/09/19 12:09:07;;;;;;;2.10;1.90;;;;;;;;;;4958756;28;20203;-68
2021/09/19 12:11:39;;;;;;;1.67;1.40;;;;;;;;;;4980517;28;20180;-67
2021/09/19 12:14:09;;;;;;;2.42;1.90;;;;;;;;;;4975770;28;20654;-67
2021/09/19 12:16:34;;;;;;;2.53;2.33;;;;;;;;;;4980073;28;20803;-67
2021/09/19 12:19:00;;;;;;;2.92;2.70;;;;;;;;;;4979224;28;20235;-66
2021/09/19 12:21:25;;;;;;;4.57;3.33;;;;;;;;;;4984019;28;20190;-67
2021/09/19 12:23:54;;;;;;;3.55;3.25;;;;;;;;;;4980438;28;20456;-67
2021/09/19 12:26:21;;;;;;;3.95;2.72;;;;;;;;;;4979452;28;20716;-67
2021/09/19 12:28:51;;;;;;;2.22;2.00;;;;;;;;;;4984274;23;20617;-73
2021/09/19 12:31:35;;;;;;;3.05;2.50;;;;;;;;;;4958457;28;20184;-71
2021/09/19 12:34:00;;;;;;;3.65;2.85;;;;;;;;;;4955251;28;20731;-72
2021/09/19 12:36:26;;;;;;;3.20;2.90;;;;;;;;;;4957310;28;20252;-71
2021/09/19 12:38:51;;;;;;;4.13;3.03;;;;;;;;;;4937575;28;20457;-73
2021/09/19 12:41:20;;;;;;;3.00;2.72;;;;;;;;;;4961090;28;20682;-72
2021/09/19 12:43:45;;;;;;;3.83;2.67;;;;;;;;;;4961809;28;20207;-73
2021/09/19 12:46:13;;;;;;;4.63;3.10;;;;;;;;;;4951271;28;20192;-72
2021/09/19 12:48:38;;;;;;;3.38;3.08;;;;;;;;;;4953526;28;20208;-71
2021/09/19 12:51:03;;;;;;;3.08;2.78;;;;;;;;;;4958276;28;20462;-72
2021/09/19 12:53:32;;;;;;;3.35;3.15;;;;;;;;;;4954510;28;20223;-72
2021/09/19 12:55:58;;;;;;;2.22;2.03;;;;;;;;;;4956157;28;20202;-72
2021/09/19 12:58:23;;;;;;;2.60;2.40;;;;;;;;;;4936162;28;20181;-74
2021/09/19 13:00:48;;;;;;;2.90;2.70;;;;;;;;;;4954336;28;20638;-71
2021/09/19 13:03:14;;;;;;;2.88;2.58;;;;;;;;;;4957837;28;20722;-72
2021/09/19 13:05:40;;;;;;;2.35;2.15;;;;;;;;;;4956323;28;20256;-71
2021/09/19 13:08:05;;;;;;;2.42;2.22;;;;;;;;;;4955225;28;20184;-71
2021/09/19 13:10:31;;;;;;;2.88;2.03;;;;;;;;;;4959562;28;20258;-71
2021/09/19 13:12:57;;;;;;;3.28;2.05;;;;;;;;;;4958946;28;20233;-72
2021/09/19 13:15:23;;;;;;;2.78;2.45;;;;;;;;;;4955720;28;20188;-71
2021/09/19 13:17:49;;;;;;;3.28;2.38;;;;;;;;;;4939960;28;20188;-72
2021/09/19 13:20:14;;;;;;;3.03;2.50;;;;;;;;;;4956181;28;20250;-71
2021/09/19 13:22:39;;;;;;;3.90;2.70;;;;;;;;;;4959959;28;20185;-72
2021/09/19 13:25:05;;;;;;;6.17;2.53;;;;;;;;;;4955868;28;20195;-72
2021/09/19 13:27:30;;;;;;;2.83;2.53;;;;;;;;;;4960797;28;20445;-73
2021/09/19 13:29:55;;;;;;;2.73;2.03;;;;;;;;;;4955434;28;20717;-73
2021/09/19 13:32:20;;;;;;;3.10;2.80;;;;;;;;;;4957736;28;22230;-72
2021/09/19 13:34:46;;;;;;;2.50;2.30;;;;;;;;;;4959181;28;20761;-73
2021/09/19 13:37:11;;;;;;;2.10;1.83;;;;;;;;;;4958483;28;20235;-73
2021/09/19 13:39:36;;;;;;;2.72;1.92;;;;;;;;;;4956960;28;20446;-72
2021/09/19 13:42:01;;;;;;;2.77;2.17;;;;;;;;;;4956279;28;20188;-72
2021/09/19 13:44:26;;;;;;;2.95;2.63;;;;;;;;;;4955052;28;20577;-72
2021/09/19 13:46:54;;;;;;;2.42;2.22;;;;;;;;;;4956086;28;20576;-70
2021/09/19 13:49:23;;;;;;;2.42;2.22;;;;;;;;;;4954890;28;20199;-72
2021/09/19 13:51:49;;;;;;;4.65;2.20;;;;;;;;;;4955226;28;20200;-72
2021/09/19 13:54:14;;;;;;;2.78;2.58;;;;;;;;;;4958108;28;20191;-72
2021/09/19 13:56:39;;;;;;;2.97;2.17;;;;;;;;;;4956936;28;20218;-73
2021/09/19 13:59:04;;;;;;;2.67;2.43;;;;;;;;;;4953777;28;20196;-73
2021/09/19 14:01:30;;;;;;;3.13;2.72;;;;;;;;;;4958416;28;20465;-71
2021/09/19 14:03:55;;;;;;;2.20;2.00;;;;;;;;;;4959456;28;20215;-71
2021/09/19 14:06:20;;;;;;;3.83;2.17;;;;;;;;;;4956473;28;20200;-73
2021/09/19 14:08:45;;;;;;;2.23;2.03;;;;;;;;;;4953560;28;20200;-72
2021/09/19 14:11:10;;;;;;;2.73;2.17;;;;;;;;;;4953746;28;20521;-71
2021/09/19 14:13:36;;;;;;;3.60;2.20;;;;;;;;;;4959770;28;20477;-72
2021/09/19 14:16:01;;;;;;;2.67;2.20;;;;;;;;;;4944546;28;20989;-72
2021/09/19 14:18:26;;;;;;;2.43;1.90;;;;;;;;;;4965378;28;22310;-72
2021/09/19 14:20:51;;;;;;;3.50;2.40;;;;;;;;;;4961594;28;20925;-73
2021/09/19 14:23:16;;;;;;;2.33;2.13;;;;;;;;;;4958404;28;21572;-72
2021/09/19 14:25:42;;;;;;;2.35;2.15;;;;;;;;;;4960604;28;20799;-73